Marella Discovery — 9HA4324 — position and weather

sailwx.info

Track history (hours):
 
Tides and Currents Weather Stations Pressure Air Temp Water Temp Dewpoint Dewpoint Depression Visibility Wind Speed Wind Dir Waves Ship Positions

Marella Discovery

Last reported at 2020-Aug-07 03:59 UTC. Time now 2020-Aug-07 04:46 UTC.
Position N 50°36' W 002°21'.

Length 264 m; draft 8 m.

Type: Passenger vessel. MMSI: 249639000.

Date/timePositionNaut miles runAvg speedWind from/ knotsBaromVisibWave heightAir tempDewpointWater temp
2020-Aug-07 03:59N 50°36' W 002°21'0 0.0
2020-Aug-07 03:26N 50°36' W 002°21'0 0.0
2020-Aug-06 23:20N 50°36' W 002°21'0 0.0
2020-Aug-06 21:29N 50°36' W 002°21'0 0.0
2020-Aug-06 19:59N 50°36' W 002°21'0 0.0
2020-Aug-06 15:47N 50°36' W 002°21'0 0.0
2020-Aug-06 03:50N 50°36' W 002°21'0 0.0
2020-Aug-05 13:32N 50°36' W 002°21'0 0.1
2020-Aug-05 12:56N 50°36' W 002°21'0 0.2
2020-Aug-05 12:26N 50°36' W 002°21'0 0.0
2020-Aug-05 09:29N 50°36' W 002°21'0 0.0
2020-Aug-05 06:29N 50°36' W 002°21'0 0.0
2020-Aug-05 04:29N 50°36' W 002°21'0 0.0
2020-Aug-05 00:20N 50°36' W 002°21'0 0.0
2020-Aug-04 22:17N 50°36' W 002°21'0 0.0
2020-Aug-04 20:59N 50°36' W 002°21'0 0.0
2020-Aug-04 19:59N 50°36' W 002°21'0 0.0
2020-Aug-04 04:50N 50°36' W 002°21'0 0.0
2020-Aug-04 03:47N 50°36' W 002°21'0 0.0
2020-Aug-04 02:50N 50°36' W 002°21'0 0.0
2020-Aug-03 17:05N 50°36' W 002°21'0 0.0
2020-Aug-03 16:23N 50°36' W 002°21'0 0.0
2020-Aug-03 15:02N 50°36' W 002°21'0 0.0
2020-Aug-02 16:08N 50°36' W 002°21'0 0.0
2020-Aug-01 13:35N 50°36' W 002°21'0 0.0
2020-Aug-01 00:29N 50°36' W 002°21'0 0.0
2020-Jul-31 23:56N 50°36' W 002°21'0 0.0
2020-Jul-31 15:08N 50°36' W 002°21'0 0.1
2020-Jul-31 11:59N 50°36' W 002°21'0 0.0
2020-Jul-31 09:59N 50°36' W 002°21'3 0.9
2020-Jul-31 06:31N 50°33' W 002°18'4 8.1
2020-Jul-31 06:01N 50°30' W 002°16'6 6.2
2020-Jul-31 05:01N 50°24' W 002°14'5 5.4
2020-Jul-31 04:01N 50°21' W 002°22'16 5.3
2020-Jul-31 01:01N 50°22' W 002°46'3 5.7
2020-Jul-31 00:31N 50°24' W 002°49'17 8.5
2020-Jul-30 22:31N 50°14' W 003°10'1111.2
2020-Jul-30 21:31N 50°06' W 003°22'1212.4
2020-Jul-30 20:30N 50°02' W 003°41'1312.7
2020-Jul-30 19:31N 49°59' W 003°60'34 5.7
2020-Jul-30 13:31N 50°00' W 003°07'4213.9
2020-Jul-30 10:30N 50°14' W 002°05'1811.8
2020-Jul-30 09:00N 50°30' W 002°18'611.5
2020-Jul-30 08:30N 50°35' W 002°21'1 0.3
2020-Jul-30 05:59N 50°36' W 002°21'0 0.0
2020-Jul-30 03:59N 50°36' W 002°21'0 0.0
2020-Jul-29 20:02N 50°36' W 002°21'0 0.0
2020-Jul-29 19:23N 50°36' W 002°21'0 0.0
2020-Jul-29 15:17N 50°36' W 002°21'0 0.0
2020-Jul-28 06:23N 50°36' W 002°21'0 0.0
2020-Jul-28 05:29N 50°36' W 002°21'  
Track history (hours):
 
Tides and Currents Weather Stations Pressure Air Temp Water Temp Dewpoint Dewpoint Depression Visibility Wind Speed Wind Dir Waves Ship Positions

Marella Discovery

Last reported at 2020-Aug-07 03:59 UTC. Time now 2020-Aug-07 04:46 UTC.
Position N 50°36' W 002°21'.

Length 264 m; draft 8 m.

Type: Passenger vessel. MMSI: 249639000.

Date/timePositionNaut miles runAvg speedWind from/ knotsBaromVisibWave heightAir tempDewpointWater temp
2020-Aug-07 03:59N 50°36' W 002°21'0 0.0
2020-Aug-07 03:26N 50°36' W 002°21'0 0.0
2020-Aug-06 23:20N 50°36' W 002°21'0 0.0
2020-Aug-06 21:29N 50°36' W 002°21'0 0.0
2020-Aug-06 19:59N 50°36' W 002°21'0 0.0
2020-Aug-06 15:47N 50°36' W 002°21'0 0.0
2020-Aug-06 03:50N 50°36' W 002°21'0 0.0
2020-Aug-05 13:32N 50°36' W 002°21'0 0.1
2020-Aug-05 12:56N 50°36' W 002°21'0 0.2
2020-Aug-05 12:26N 50°36' W 002°21'0 0.0
2020-Aug-05 09:29N 50°36' W 002°21'0 0.0
2020-Aug-05 06:29N 50°36' W 002°21'0 0.0
2020-Aug-05 04:29N 50°36' W 002°21'0 0.0
2020-Aug-05 00:20N 50°36' W 002°21'0 0.0
2020-Aug-04 22:17N 50°36' W 002°21'0 0.0
2020-Aug-04 20:59N 50°36' W 002°21'0 0.0
2020-Aug-04 19:59N 50°36' W 002°21'0 0.0
2020-Aug-04 04:50N 50°36' W 002°21'0 0.0
2020-Aug-04 03:47N 50°36' W 002°21'0 0.0
2020-Aug-04 02:50N 50°36' W 002°21'0 0.0
2020-Aug-03 17:05N 50°36' W 002°21'0 0.0
2020-Aug-03 16:23N 50°36' W 002°21'0 0.0
2020-Aug-03 15:02N 50°36' W 002°21'0 0.0
2020-Aug-02 16:08N 50°36' W 002°21'0 0.0
2020-Aug-01 13:35N 50°36' W 002°21'0 0.0
2020-Aug-01 00:29N 50°36' W 002°21'0 0.0
2020-Jul-31 23:56N 50°36' W 002°21'0 0.0
2020-Jul-31 15:08N 50°36' W 002°21'0 0.1
2020-Jul-31 11:59N 50°36' W 002°21'0 0.0
2020-Jul-31 09:59N 50°36' W 002°21'3 0.9
2020-Jul-31 06:31N 50°33' W 002°18'4 8.1
2020-Jul-31 06:01N 50°30' W 002°16'6 6.2
2020-Jul-31 05:01N 50°24' W 002°14'5 5.4
2020-Jul-31 04:01N 50°21' W 002°22'16 5.3
2020-Jul-31 01:01N 50°22' W 002°46'3 5.7
2020-Jul-31 00:31N 50°24' W 002°49'17 8.5
2020-Jul-30 22:31N 50°14' W 003°10'1111.2
2020-Jul-30 21:31N 50°06' W 003°22'1212.4
2020-Jul-30 20:30N 50°02' W 003°41'1312.7
2020-Jul-30 19:31N 49°59' W 003°60'34 5.7
2020-Jul-30 13:31N 50°00' W 003°07'4213.9
2020-Jul-30 10:30N 50°14' W 002°05'1811.8
2020-Jul-30 09:00N 50°30' W 002°18'611.5
2020-Jul-30 08:30N 50°35' W 002°21'1 0.3
2020-Jul-30 05:59N 50°36' W 002°21'0 0.0
2020-Jul-30 03:59N 50°36' W 002°21'0 0.0
2020-Jul-29 20:02N 50°36' W 002°21'0 0.0
2020-Jul-29 19:23N 50°36' W 002°21'0 0.0
2020-Jul-29 15:17N 50°36' W 002°21'0 0.0
2020-Jul-28 06:23N 50°36' W 002°21'0 0.0
2020-Jul-28 05:29N 50°36' W 002°21'  

Dump ship's entire track history